YTEF/TEF METAR and TAF weather

Enter ICAO airport designator
Station Type Date Time Source
YTEF METAR 2020/04/05 05:00 UTC NOAA

YTEF 050500Z AUTO 10008KT 070V130 9999 // NCD 38/06 Q1011


Station Type Date Time Source
YTEF Decoded METAR 2020/04/05 05:00 UTC NOAA

Station name not available
Apr 05, 2020 - 01:00 AM EDT / 2020.04.05 0500 UTC
Wind: from the E (100 degrees) at 9 MPH (8 KT) (direction variable):0
Visibility: greater than 7 mile(s):0
Temperature: 100 F (38 C)
Dew Point: 42 F (6 C)
Relative Humidity: 14%
Pressure (altimeter): 29.85 in. Hg (1011 hPa)
ob: YTEF 050500Z AUTO 10008KT 070V130 9999 // NCD 38/06 Q1011
cycle: 5

Station Type Date Time Source
YTEF TAF 2017/06/24 02:03 UTC NOAA

TAF TAF YTEF 240051Z 2402/2414 12005KT CAVOK
FM240500 33005KT 9999 -SHRA SCT060 BKN100

Example: see airport list